Time;durP1;ratioP1;P1;durP2;ratioP2;P2;SDS_P1;SDS_P2;PMS_P1;PMS_P2;Temp;Humidity;BMP_temperature;BMP_pressure;BME280_temperature;BME280_humidity;BME280_pressure;Samples;Min_cycle;Max_cycle;Signal;HPM_P1;HPM_P2
2023/04/12 00:02:15;;;;;;;3.93;2.10;;;;;;;8.92;74.49;99896.97;5040439;28;20238;-73
2023/04/12 00:04:42;;;;;;;6.10;2.30;;;;;;;8.96;76.35;99882.03;5032561;28;20227;-73
2023/04/12 00:07:09;;;;;;;5.17;2.40;;;;;;;8.98;75.43;99881.19;5039242;28;20219;-73
2023/04/12 00:09:36;;;;;;;6.30;2.70;;;;;;;8.97;78.46;99879.41;5047199;28;20228;-74
2023/04/12 00:12:03;;;;;;;4.33;2.10;;;;;;;8.88;79.78;99889.00;5041998;28;20278;-73
2023/04/12 00:14:29;;;;;;;8.27;2.43;;;;;;;8.78;81.07;99885.31;5033237;28;20211;-73
2023/04/12 00:16:56;;;;;;;6.13;2.20;;;;;;;8.73;81.78;99885.28;5041870;28;20723;-73
2023/04/12 00:19:26;;;;;;;3.97;2.27;;;;;;;8.66;82.18;99878.16;5042549;28;20194;-73
2023/04/12 00:21:52;;;;;;;5.93;2.30;;;;;;;8.63;83.67;99878.13;5043991;28;20612;-73
2023/04/12 00:24:19;;;;;;;7.23;2.70;;;;;;;8.63;84.59;99877.22;5038860;28;20200;-73
2023/04/12 00:26:45;;;;;;;7.60;2.60;;;;;;;8.67;84.11;99879.91;5042570;28;20306;-73
2023/04/12 00:29:11;;;;;;;7.83;2.43;;;;;;;8.71;84.64;99875.56;5018205;28;20597;-73
2023/04/12 00:31:38;;;;;;;5.20;2.20;;;;;;;8.65;84.93;99872.84;5035754;28;20196;-73
2023/04/12 00:34:04;;;;;;;8.07;2.43;;;;;;;8.69;85.73;99862.34;5037761;28;20226;-73
2023/04/12 00:36:30;;;;;;;4.53;2.50;;;;;;;8.64;85.15;99869.31;5038250;28;20242;-73
2023/04/12 00:38:57;;;;;;;3.57;2.27;;;;;;;8.72;86.75;99848.31;5038251;28;20567;-73
2023/04/12 00:41:25;;;;;;;4.80;2.40;;;;;;;8.73;86.50;99848.31;5036282;28;20199;-73
2023/04/12 00:43:51;;;;;;;4.63;2.07;;;;;;;8.66;86.85;99849.13;5038166;28;20196;-73
2023/04/12 00:46:19;;;;;;;7.20;2.50;;;;;;;8.63;87.58;99845.56;5036893;28;20656;-73
2023/04/12 00:48:47;;;;;;;5.20;2.20;;;;;;;8.59;88.45;99847.28;5043815;28;20282;-74
2023/04/12 00:51:13;;;;;;;3.93;2.37;;;;;;;8.57;89.10;99846.38;5036671;28;20250;-74
2023/04/12 00:53:40;;;;;;;5.27;2.90;;;;;;;8.57;89.68;99838.44;5038020;28;20239;-73
2023/04/12 00:56:10;;;;;;;7.50;2.50;;;;;;;8.57;90.29;99841.09;5047442;28;20238;-73
2023/04/12 00:58:37;;;;;;;8.23;2.27;;;;;;;8.57;90.46;99822.63;5036673;28;20204;-72
2023/04/12 01:01:03;;;;;;;4.17;2.07;;;;;;;8.56;90.63;99843.72;5041500;28;20198;-74
2023/04/12 01:03:30;;;;;;;6.40;2.33;;;;;;;8.56;90.78;99839.31;5047428;28;20691;-73
2023/04/12 01:06:15;;;;;;;4.80;2.10;;;;;;;8.57;91.58;99837.56;5042874;28;20194;-73
2023/04/12 01:08:54;;;;;;;4.17;1.60;;;;;;;8.57;91.28;99819.97;5027693;28;20366;-73
2023/04/12 01:11:45;;;;;;;5.63;1.90;;;;;;;8.60;90.97;99816.50;5040202;28;20250;-73
2023/04/12 01:14:40;;;;;;;5.20;2.03;;;;;;;8.53;91.65;99826.09;5015067;28;20215;-73
2023/04/12 01:17:12;;;;;;;4.27;1.87;;;;;;;8.56;92.61;99805.00;5029905;28;20643;-73
2023/04/12 01:19:58;;;;;;;5.33;1.80;;;;;;;8.48;93.15;99797.00;5037156;28;20195;-73
2023/04/12 01:22:53;;;;;;;6.57;1.90;;;;;;;8.45;94.05;99799.59;5038783;28;20195;-73
2023/04/12 01:25:47;;;;;;;2.03;1.50;;;;;;;8.42;94.78;99804.84;5020339;28;20199;-73
2023/04/12 01:28:19;;;;;;;4.27;1.53;;;;;;;8.37;95.75;99792.44;5037444;28;20231;-72
2023/04/12 01:30:49;;;;;;;7.20;1.60;;;;;;;8.33;96.71;99780.03;5033338;28;20196;-73
2023/04/12 01:33:17;;;;;;;3.37;1.70;;;;;;;8.35;97.24;99773.06;5031244;28;20229;-73
2023/04/12 01:35:45;;;;;;;5.27;1.80;;;;;;;8.28;97.64;99774.72;5044619;28;20203;-73
2023/04/12 01:38:12;;;;;;;4.83;1.60;;;;;;;8.30;98.42;99764.19;5033696;28;20227;-73
2023/04/12 01:40:41;;;;;;;6.27;2.17;;;;;;;8.27;98.02;99769.41;5038978;28;20650;-73
2023/04/12 01:43:10;;;;;;;6.27;2.03;;;;;;;8.24;98.67;99753.56;5040859;28;20260;-72
2023/04/12 01:45:37;;;;;;;5.93;1.60;;;;;;;8.17;99.23;99744.69;5045788;28;20194;-73
2023/04/12 01:48:07;;;;;;;3.87;1.60;;;;;;;8.18;99.10;99743.81;5027869;28;20217;-73
2023/04/12 01:50:43;;;;;;;6.83;1.90;;;;;;;8.14;99.37;99742.03;5021574;28;20206;-73
2023/04/12 01:53:19;;;;;;;4.60;1.80;;;;;;;8.13;99.23;99727.94;5045029;28;20225;-73
2023/04/12 01:55:48;;;;;;;3.50;1.50;;;;;;;8.17;99.36;99723.59;5042893;28;20290;-73
2023/04/12 01:58:19;;;;;;;2.23;1.50;;;;;;;8.12;99.32;99725.28;5034931;28;20245;-72
2023/04/12 02:00:48;;;;;;;5.30;1.80;;;;;;;8.12;99.56;99720.91;5047461;28;20199;-72
2023/04/12 02:03:17;;;;;;;3.60;1.80;;;;;;;8.11;99.83;99716.50;5030912;28;20199;-72
2023/04/12 02:05:44;;;;;;;3.37;1.77;;;;;;;8.08;100.00;99723.50;5029797;28;20194;-72
2023/04/12 02:08:11;;;;;;;4.40;1.57;;;;;;;8.00;100.00;99709.28;5046600;28;20244;-73
2023/04/12 02:10:39;;;;;;;4.77;1.63;;;;;;;8.01;100.00;99713.72;5048357;28;20621;-73
2023/04/12 02:13:05;;;;;;;3.37;1.60;;;;;;;7.96;100.00;99713.66;5048582;28;20237;-73
2023/04/12 02:15:32;;;;;;;5.37;1.73;;;;;;;7.96;100.00;99703.09;5042301;28;20216;-73
2023/04/12 02:17:59;;;;;;;6.77;1.90;;;;;;;7.92;100.00;99697.78;5044927;28;20321;-72
2023/04/12 02:20:26;;;;;;;6.07;2.07;;;;;;;7.92;100.00;99701.28;5047918;28;20199;-72
2023/04/12 02:22:52;;;;;;;4.93;1.73;;;;;;;7.96;100.00;99687.28;5051334;28;20666;-73
2023/04/12 02:25:19;;;;;;;3.93;2.00;;;;;;;7.91;100.00;99688.09;5049318;28;20195;-72
2023/04/12 02:27:47;;;;;;;6.67;1.73;;;;;;;7.94;100.00;99678.47;5051511;28;20223;-72
2023/04/12 02:30:14;;;;;;;5.13;1.90;;;;;;;7.98;100.00;99668.84;5048624;28;20256;-73
2023/04/12 02:32:43;;;;;;;4.50;2.10;;;;;;;7.91;100.00;99659.97;5050439;28;20205;-72
2023/04/12 02:35:17;;;;;;;5.17;1.80;;;;;;;7.92;100.00;99663.50;5048329;28;20222;-72
2023/04/12 02:37:48;;;;;;;5.43;1.70;;;;;;;7.89;100.00;99647.66;5044757;28;20324;-72
2023/04/12 02:40:14;;;;;;;2.83;1.63;;;;;;;7.90;100.00;99652.94;5050830;28;20291;-72
2023/04/12 02:42:44;;;;;;;8.63;1.93;;;;;;;7.92;100.00;99647.69;5050520;28;20927;-72
2023/04/12 02:45:10;;;;;;;5.80;2.00;;;;;;;7.97;100.00;99646.88;5049764;28;20284;-73
2023/04/12 02:47:37;;;;;;;5.20;2.03;;;;;;;7.99;100.00;99642.50;5052065;28;20228;-72
2023/04/12 02:50:04;;;;;;;2.90;1.60;;;;;;;8.00;100.00;99635.47;5050609;28;20206;-72
2023/04/12 02:52:32;;;;;;;2.80;1.67;;;;;;;8.00;100.00;99636.34;5033676;28;20496;-72
2023/04/12 02:54:59;;;;;;;5.97;1.90;;;;;;;7.97;100.00;99631.03;5064237;28;20236;-72
2023/04/12 02:57:25;;;;;;;4.87;1.83;;;;;;;7.92;100.00;99614.28;5056923;28;20227;-72
2023/04/12 02:59:52;;;;;;;7.87;1.90;;;;;;;7.94;100.00;99609.91;5042313;28;20197;-72
2023/04/12 03:02:20;;;;;;;4.30;1.90;;;;;;;7.90;100.00;99605.47;5056605;28;20209;-72
2023/04/12 03:04:49;;;;;;;2.37;1.53;;;;;;;7.85;100.00;99615.97;5052531;28;20209;-71
2023/04/12 03:07:18;;;;;;;3.47;1.80;;;;;;;7.84;100.00;99611.56;5049659;28;20295;-71
2023/04/12 03:09:46;;;;;;;2.27;1.60;;;;;;;7.78;100.00;99608.88;5050805;28;20198;-71
2023/04/12 03:12:14;;;;;;;3.13;1.83;;;;;;;7.77;100.00;99607.09;5050239;28;20271;-71
2023/04/12 03:14:41;;;;;;;5.20;1.60;;;;;;;7.81;100.00;99601.00;5045423;28;20225;-71
2023/04/12 03:17:08;;;;;;;3.03;1.60;;;;;;;7.80;100.00;99593.06;5046424;28;20609;-71
2023/04/12 03:19:35;;;;;;;3.03;1.80;;;;;;;7.69;100.00;99578.91;5049599;28;20228;-71
2023/04/12 03:22:03;;;;;;;5.77;2.00;;;;;;;7.72;100.00;99592.09;5049914;28;20198;-71
2023/04/12 03:24:33;;;;;;;4.70;2.33;;;;;;;7.70;100.00;99591.19;5048708;28;20517;-71
2023/04/12 03:27:01;;;;;;;6.67;1.83;;;;;;;7.68;100.00;99582.41;5049086;28;20713;-71
2023/04/12 03:29:28;;;;;;;6.27;2.53;;;;;;;7.64;100.00;99578.84;5041901;28;20249;-71
2023/04/12 03:31:56;;;;;;;7.27;2.17;;;;;;;7.62;100.00;99571.78;5032093;28;20202;-71
2023/04/12 03:34:23;;;;;;;4.30;1.97;;;;;;;7.61;100.00;99572.66;5046738;28;20219;-70
2023/04/12 03:36:50;;;;;;;6.57;2.13;;;;;;;7.59;100.00;99561.19;5029707;28;20242;-71
2023/04/12 03:39:16;;;;;;;5.03;2.00;;;;;;;7.56;100.00;99554.13;5050266;28;20501;-71
2023/04/12 03:41:43;;;;;;;6.17;2.67;;;;;;;7.60;100.00;99550.66;5049811;28;20246;-71
2023/04/12 03:44:09;;;;;;;6.07;2.47;;;;;;;7.59;100.00;99551.53;5046615;28;20205;-70
2023/04/12 03:46:36;;;;;;;8.27;3.13;;;;;;;7.63;100.00;99537.56;5049009;28;20217;-71
2023/04/12 03:49:02;;;;;;;8.57;4.40;;;;;;;7.58;100.00;99536.59;5050026;28;20217;-71
2023/04/12 03:51:29;;;;;;;7.67;4.23;;;;;;;7.58;100.00;99518.13;5045664;28;20275;-70
2023/04/12 03:53:55;;;;;;;10.17;4.80;;;;;;;7.59;100.00;99519.03;5050234;28;20261;-71
2023/04/12 03:56:22;;;;;;;8.53;5.40;;;;;;;7.60;100.00;99507.63;5047325;28;20230;-71
2023/04/12 03:58:49;;;;;;;11.63;6.00;;;;;;;7.61;100.00;99512.94;5047556;28;20199;-71
2023/04/12 04:01:16;;;;;;;14.20;6.07;;;;;;;7.61;100.00;99498.88;5042035;28;20224;-70
2023/04/12 04:03:45;;;;;;;13.87;5.70;;;;;;;7.63;100.00;99497.16;5050139;28;20197;-70
2023/04/12 04:06:12;;;;;;;11.50;5.33;;;;;;;7.61;100.00;99494.50;5048200;28;20199;-71
2023/04/12 04:08:38;;;;;;;7.70;4.40;;;;;;;7.59;100.00;99479.50;5050928;28;20205;-70
2023/04/12 04:11:05;;;;;;;10.23;4.47;;;;;;;7.62;100.00;99479.56;5045261;28;20231;-71
2023/04/12 04:13:34;;;;;;;9.93;4.70;;;;;;;7.62;100.00;99472.53;5050135;28;20198;-71
2023/04/12 04:16:05;;;;;;;14.20;5.70;;;;;;;7.64;100.00;99464.66;5048320;28;20216;-71
2023/04/12 04:18:31;;;;;;;13.73;6.00;;;;;;;7.66;100.00;99455.00;5046448;28;20202;-70
2023/04/12 04:20:58;;;;;;;10.33;5.47;;;;;;;7.67;100.00;99446.22;5048076;28;20232;-71
2023/04/12 04:23:24;;;;;;;9.90;5.70;;;;;;;7.68;100.00;99442.72;5046204;28;20202;-70
2023/04/12 04:25:52;;;;;;;13.33;6.80;;;;;;;7.68;100.00;99440.09;5049579;28;20669;-70
2023/04/12 04:28:19;;;;;;;10.63;6.30;;;;;;;7.70;100.00;99439.25;5043863;28;20206;-70
2023/04/12 04:30:45;;;;;;;18.90;7.97;;;;;;;7.70;100.00;99428.69;5048602;28;20203;-70
2023/04/12 04:33:12;;;;;;;17.50;8.40;;;;;;;7.71;100.00;99426.94;5044630;28;20203;-70
2023/04/12 04:35:39;;;;;;;23.77;9.33;;;;;;;7.71;100.00;99416.41;5045976;28;20579;-70
2023/04/12 04:38:06;;;;;;;20.90;9.73;;;;;;;7.72;100.00;99412.91;5049356;28;20226;-70
2023/04/12 04:40:35;;;;;;;19.50;9.97;;;;;;;7.73;100.00;99406.75;5047290;28;20200;-70
2023/04/12 04:43:01;;;;;;;20.17;9.53;;;;;;;7.71;100.00;99396.22;5044342;28;20240;-70
2023/04/12 04:45:29;;;;;;;27.43;11.40;;;;;;;7.70;100.00;99398.81;5029606;28;20202;-70
2023/04/12 04:47:56;;;;;;;22.33;9.63;;;;;;;7.76;100.00;99388.34;5050254;28;20213;-70
2023/04/12 04:50:25;;;;;;;25.43;10.07;;;;;;;7.72;100.00;99387.44;5045904;28;20201;-70
2023/04/12 04:52:51;;;;;;;18.23;9.23;;;;;;;7.76;100.00;99381.31;5046330;28;20293;-70
2023/04/12 04:55:19;;;;;;;16.37;8.43;;;;;;;7.79;100.00;99386.59;5044442;28;20220;-70
2023/04/12 04:57:46;;;;;;;12.40;7.47;;;;;;;7.82;100.00;99380.47;5045964;28;20223;-70
2023/04/12 05:00:13;;;;;;;12.10;7.07;;;;;;;7.84;100.00;99384.00;5047179;28;20267;-71
2023/04/12 05:02:41;;;;;;;13.30;7.13;;;;;;;7.83;100.00;99374.34;5047136;28;20194;-71
2023/04/12 05:05:11;;;;;;;14.27;7.17;;;;;;;7.80;100.00;99367.28;5027266;28;20213;-70
2023/04/12 05:07:37;;;;;;;13.20;6.93;;;;;;;7.83;100.00;99369.94;5046505;28;20754;-71
2023/04/12 05:10:05;;;;;;;10.23;6.40;;;;;;;7.81;100.00;99361.13;5037714;28;20206;-69
2023/04/12 05:12:31;;;;;;;14.43;6.97;;;;;;;7.80;100.00;99356.75;5045886;28;20198;-69
2023/04/12 05:14:58;;;;;;;14.30;6.40;;;;;;;7.80;100.00;99346.19;5047586;28;20602;-69
2023/04/12 05:17:37;;;;;;;12.13;6.50;;;;;;;7.82;100.00;99336.56;5049191;28;20258;-69
2023/04/12 05:20:07;;;;;;;9.83;5.77;;;;;;;7.85;100.00;99336.56;5043346;28;20294;-69
2023/04/12 05:22:34;;;;;;;9.33;5.17;;;;;;;7.88;100.00;99333.06;5045862;28;20621;-72
2023/04/12 05:25:01;;;;;;;9.57;5.53;;;;;;;7.88;100.00;99326.91;5030364;28;20193;-71
2023/04/12 05:27:28;;;;;;;8.10;4.90;;;;;;;7.89;100.00;99323.41;5044400;28;20238;-71
2023/04/12 05:29:58;;;;;;;6.90;4.13;;;;;;;7.84;100.00;99321.63;5046713;28;20237;-71
2023/04/12 05:32:25;;;;;;;10.73;5.40;;;;;;;7.90;100.00;99317.25;5043904;28;20732;-71
2023/04/12 05:34:51;;;;;;;7.70;3.90;;;;;;;7.89;100.00;99311.09;5030480;28;20213;-71
2023/04/12 05:37:17;;;;;;;7.87;4.17;;;;;;;7.85;100.00;99304.06;5046049;28;20276;-71
2023/04/12 05:39:44;;;;;;;6.57;4.07;;;;;;;7.89;100.00;99302.31;5047012;28;20197;-71
2023/04/12 05:42:10;;;;;;;7.23;3.43;;;;;;;7.88;100.00;99296.16;5022399;28;20202;-70
2023/04/12 05:44:37;;;;;;;7.43;3.90;;;;;;;7.86;100.00;99290.88;5046100;28;20226;-71
2023/04/12 05:47:04;;;;;;;7.37;3.93;;;;;;;7.85;100.00;99288.25;5047347;28;20253;-71
2023/04/12 05:49:30;;;;;;;6.20;3.90;;;;;;;7.85;100.00;99282.97;5047400;28;20626;-71
2023/04/12 05:51:57;;;;;;;8.73;4.13;;;;;;;7.89;100.00;99283.88;5046991;28;20251;-70
2023/04/12 05:54:24;;;;;;;7.00;4.07;;;;;;;7.89;100.00;99263.66;5047962;28;20268;-71
2023/04/12 05:56:53;;;;;;;8.03;3.97;;;;;;;7.95;100.00;99265.44;5053144;28;20223;-71
2023/04/12 05:59:19;;;;;;;6.80;3.87;;;;;;;7.98;100.00;99268.09;5049250;28;20569;-71
2023/04/12 06:01:46;;;;;;;5.50;3.90;;;;;;;7.97;100.00;99255.78;5052213;28;20254;-71
2023/04/12 06:04:13;;;;;;;5.97;3.53;;;;;;;7.95;100.00;99247.00;5050783;28;20266;-71
2023/04/12 06:06:40;;;;;;;5.60;3.47;;;;;;;7.93;100.00;99244.34;5049947;28;20716;-71
2023/04/12 06:09:06;;;;;;;5.07;3.17;;;;;;;7.91;100.00;99254.00;5050316;28;20226;-71
2023/04/12 06:11:33;;;;;;;4.07;2.87;;;;;;;7.89;100.00;99245.22;5049730;28;20214;-71
2023/04/12 06:14:00;;;;;;;5.73;3.10;;;;;;;7.90;100.00;99244.34;5051605;28;20633;-71
2023/04/12 06:16:26;;;;;;;4.30;2.90;;;;;;;7.94;100.00;99242.59;5050532;28;21742;-71
2023/04/12 06:18:53;;;;;;;5.00;2.87;;;;;;;7.94;100.00;99245.22;5047071;28;20292;-70
2023/04/12 06:21:20;;;;;;;5.53;2.63;;;;;;;7.94;100.00;99246.13;5012772;28;20622;-70
2023/04/12 06:23:46;;;;;;;6.70;2.67;;;;;;;7.97;100.00;99246.13;5046436;28;20197;-70
2023/04/12 06:26:12;;;;;;;5.10;2.40;;;;;;;7.95;100.00;99236.44;5049102;28;20221;-71
2023/04/12 06:28:39;;;;;;;3.03;2.40;;;;;;;7.98;100.00;99231.19;5042385;28;20202;-71
2023/04/12 06:31:06;;;;;;;5.37;2.87;;;;;;;7.96;100.00;99223.28;5030338;28;20213;-70
2023/04/12 06:33:32;;;;;;;7.17;2.40;;;;;;;7.99;100.00;99219.78;5038572;28;20657;-70
2023/04/12 06:35:59;;;;;;;3.37;2.70;;;;;;;8.02;100.00;99225.09;5047454;28;20297;-70
2023/04/12 06:38:26;;;;;;;4.17;2.60;;;;;;;8.06;100.00;99225.09;5043887;28;20293;-71
2023/04/12 06:40:52;;;;;;;5.23;2.70;;;;;;;8.06;100.00;99219.84;5052574;28;20222;-71
2023/04/12 06:43:19;;;;;;;3.47;2.60;;;;;;;8.12;100.00;99208.44;5047394;28;20213;-70
2023/04/12 06:45:45;;;;;;;3.17;2.00;;;;;;;8.15;100.00;99201.41;5042156;28;21577;-71
2023/04/12 06:48:11;;;;;;;4.33;2.20;;;;;;;8.15;100.00;99195.25;5047011;28;20219;-71
2023/04/12 06:50:38;;;;;;;2.87;2.10;;;;;;;8.18;100.00;99193.50;5028281;28;20206;-71
2023/04/12 06:53:05;;;;;;;2.53;2.00;;;;;;;8.18;100.00;99188.22;5044888;28;20763;-74
2023/04/12 06:55:31;;;;;;;3.27;2.30;;;;;;;8.20;100.00;99174.16;5045257;28;20222;-69
2023/04/12 06:57:57;;;;;;;4.13;2.47;;;;;;;8.14;100.00;99164.50;5047110;28;20325;-70
2023/04/12 07:00:24;;;;;;;3.13;2.27;;;;;;;8.15;100.00;99167.13;5047728;28;20246;-70
2023/04/12 07:02:51;;;;;;;2.83;2.30;;;;;;;8.20;100.00;99163.63;5043105;28;20635;-70
2023/04/12 07:05:18;;;;;;;3.23;2.40;;;;;;;8.23;100.00;99167.16;5050049;28;20266;-70
2023/04/12 07:07:44;;;;;;;4.03;2.47;;;;;;;8.31;100.00;99164.53;5047668;28;20219;-70
2023/04/12 07:10:11;;;;;;;4.70;2.87;;;;;;;8.30;100.00;99160.13;5050399;28;20666;-70
2023/04/12 07:12:37;;;;;;;5.20;2.57;;;;;;;8.38;100.00;99163.69;5046188;28;20260;-70
2023/04/12 07:15:06;;;;;;;4.20;2.60;;;;;;;8.39;100.00;99141.72;5048433;28;20234;-70
2023/04/12 07:17:33;;;;;;;4.00;2.80;;;;;;;8.42;100.00;99141.75;5045152;28;20714;-70
2023/04/12 07:19:59;;;;;;;4.60;2.80;;;;;;;8.46;100.00;99147.03;5050687;28;20237;-70
2023/04/12 07:22:26;;;;;;;3.80;2.80;;;;;;;8.46;100.00;99125.91;5043024;28;20238;-70
2023/04/12 07:24:52;;;;;;;3.20;2.57;;;;;;;8.45;100.00;99112.72;5025375;28;20250;-71
2023/04/12 07:27:18;;;;;;;4.70;3.17;;;;;;;8.45;100.00;99118.88;5045594;28;20225;-70
2023/04/12 07:29:45;;;;;;;4.73;3.00;;;;;;;8.45;100.00;99108.34;5046911;28;20209;-69
2023/04/12 07:32:11;;;;;;;3.83;3.03;;;;;;;8.46;100.00;99094.25;5048585;28;20224;-68
2023/04/12 07:34:38;;;;;;;4.03;2.83;;;;;;;8.48;100.00;99100.41;5041912;28;20689;-71
2023/04/12 07:37:05;;;;;;;6.50;3.10;;;;;;;8.48;100.00;99103.06;5049141;28;20225;-70
2023/04/12 07:39:33;;;;;;;5.20;3.70;;;;;;;8.48;100.00;99094.25;5047746;28;20198;-70
2023/04/12 07:42:00;;;;;;;7.13;3.63;;;;;;;8.52;100.00;99096.03;5047707;28;20210;-70
2023/04/12 07:44:26;;;;;;;6.20;3.50;;;;;;;8.59;100.00;99083.69;5045685;28;20195;-70
2023/04/12 07:46:53;;;;;;;6.97;3.80;;;;;;;8.66;100.00;99077.53;5048466;28;20222;-71
2023/04/12 07:49:19;;;;;;;7.07;3.83;;;;;;;8.67;100.00;99080.19;5043592;28;20264;-71
2023/04/12 07:51:46;;;;;;;6.17;3.47;;;;;;;8.71;100.00;99074.00;5051335;28;20197;-70
2023/04/12 07:54:13;;;;;;;6.07;4.10;;;;;;;8.76;100.00;99069.59;5046596;28;20199;-71
2023/04/12 07:56:39;;;;;;;4.87;3.30;;;;;;;8.82;100.00;99068.75;5048925;28;20226;-70
2023/04/12 07:59:06;;;;;;;6.23;3.60;;;;;;;8.85;100.00;99067.88;5050224;28;20650;-71
2023/04/12 08:01:32;;;;;;;4.27;3.60;;;;;;;8.93;100.00;99072.25;5039860;28;20199;-69
2023/04/12 08:03:59;;;;;;;6.27;3.50;;;;;;;8.88;100.00;99067.88;5027222;28;20737;-69
2023/04/12 08:06:25;;;;;;;6.20;3.90;;;;;;;8.93;100.00;99058.19;5042165;28;20229;-70
2023/04/12 08:08:57;;;;;;;6.20;3.87;;;;;;;8.98;100.00;99057.28;5048651;28;20195;-69
2023/04/12 08:11:23;;;;;;;6.33;3.97;;;;;;;8.98;100.00;99056.41;5041714;28;20205;-69
2023/04/12 08:13:49;;;;;;;5.43;3.73;;;;;;;9.03;100.00;99050.22;5042359;28;20241;-68
2023/04/12 08:16:16;;;;;;;4.97;3.60;;;;;;;9.03;100.00;99060.78;5037439;28;20944;-68
2023/04/12 08:18:42;;;;;;;5.60;3.97;;;;;;;9.01;100.00;99062.56;5039768;28;20641;-67
2023/04/12 08:21:09;;;;;;;5.00;3.53;;;;;;;8.99;100.00;99056.41;5037764;28;20193;-68
2023/04/12 08:23:35;;;;;;;6.07;4.00;;;;;;;9.01;100.00;99049.34;5038290;28;20681;-68
2023/04/12 08:26:02;;;;;;;7.30;4.10;;;;;;;9.00;100.00;99050.22;5039887;28;20245;-68
2023/04/12 08:28:29;;;;;;;6.40;4.17;;;;;;;9.07;100.00;99049.34;5036103;28;20198;-69
2023/04/12 08:30:56;;;;;;;4.63;3.80;;;;;;;9.14;100.00;99041.38;5038652;28;20217;-70
2023/04/12 08:33:23;;;;;;;4.60;3.80;;;;;;;9.18;100.00;99045.78;5046680;28;20195;-68
2023/04/12 08:35:49;;;;;;;7.80;4.50;;;;;;;9.17;100.00;99042.25;5038649;28;20314;-70
2023/04/12 08:38:16;;;;;;;5.60;4.30;;;;;;;9.19;100.00;99024.63;5034076;28;20703;-69
2023/04/12 08:40:42;;;;;;;7.07;4.40;;;;;;;9.22;100.00;99032.59;5044236;28;20201;-69
2023/04/12 08:43:10;;;;;;;7.17;5.10;;;;;;;9.32;100.00;99029.03;5047818;28;20230;-68
2023/04/12 08:45:36;;;;;;;7.50;4.70;;;;;;;9.33;100.00;99029.91;5048741;28;20194;-69
2023/04/12 08:48:04;;;;;;;6.70;4.20;;;;;;;9.37;100.00;99023.72;5049019;28;20216;-69
2023/04/12 08:50:31;;;;;;;6.67;4.27;;;;;;;9.44;100.00;99017.53;5044367;28;20217;-69
2023/04/12 08:52:58;;;;;;;6.23;4.17;;;;;;;9.51;100.00;99016.59;5047431;28;20192;-68
2023/04/12 08:55:25;;;;;;;5.73;4.60;;;;;;;9.59;100.00;99013.91;5044669;28;20219;-69
2023/04/12 08:57:55;;;;;;;6.83;4.53;;;;;;;9.64;100.00;99006.88;5045232;28;20859;-70
2023/04/12 09:00:22;;;;;;;6.87;4.30;;;;;;;9.62;100.00;99011.28;5050511;28;20206;-70
2023/04/12 09:02:49;;;;;;;6.03;4.17;;;;;;;9.62;100.00;99001.59;5047339;28;20253;-69
2023/04/12 09:05:16;;;;;;;6.30;4.50;;;;;;;9.69;100.00;98995.38;5044009;28;20610;-71
2023/04/12 09:07:42;;;;;;;5.27;3.67;;;;;;;9.83;100.00;98991.78;5041070;28;20215;-71
2023/04/12 09:10:09;;;;;;;5.17;3.67;;;;;;;9.89;100.00;98987.31;5044279;28;20199;-71
2023/04/12 09:12:44;;;;;;;4.37;3.10;;;;;;;9.94;100.00;98977.59;5026348;28;20237;-71
2023/04/12 09:15:14;;;;;;;5.60;3.43;;;;;;;9.87;100.00;98972.34;5037558;28;20204;-71
2023/04/12 09:17:41;;;;;;;7.63;3.40;;;;;;;9.87;100.00;98975.00;5040105;28;20215;-71
2023/04/12 09:20:16;;;;;;;5.33;3.47;;;;;;;9.92;100.00;98962.63;5037954;28;20655;-71
2023/04/12 09:22:44;;;;;;;5.50;3.80;;;;;;;9.92;100.00;98968.78;5040132;28;20721;-71
2023/04/12 09:25:12;;;;;;;5.27;3.40;;;;;;;9.89;100.00;98952.06;5022874;28;20199;-71
2023/04/12 09:27:49;;;;;;;5.77;3.40;;;;;;;9.96;100.00;98957.28;5033830;28;20229;-70
2023/04/12 09:30:17;;;;;;;6.63;3.30;;;;;;;10.04;100.00;98955.50;5043695;28;20196;-69
2023/04/12 09:32:44;;;;;;;4.60;2.57;;;;;;;10.05;100.00;98953.72;5045813;28;20206;-70
2023/04/12 09:35:11;;;;;;;3.97;2.67;;;;;;;10.11;100.00;98945.75;5045177;28;20656;-70
2023/04/12 09:37:37;;;;;;;3.90;2.80;;;;;;;10.21;100.00;98942.16;5041631;28;20757;-70
2023/04/12 09:40:06;;;;;;;3.53;2.80;;;;;;;10.24;100.00;98936.84;5042442;28;20731;-70
2023/04/12 09:42:34;;;;;;;7.63;2.50;;;;;;;10.34;100.00;98927.03;5044295;28;20666;-71
2023/04/12 09:45:19;;;;;;;5.00;2.50;;;;;;;10.25;100.00;98930.66;5044467;28;20276;-70
2023/04/12 09:47:45;;;;;;;4.07;2.80;;;;;;;10.35;100.00;98928.78;5024222;28;20222;-71
2023/04/12 09:50:20;;;;;;;5.13;2.93;;;;;;;10.42;100.00;98927.88;5044484;28;20282;-69
2023/04/12 09:52:47;;;;;;;4.00;2.67;;;;;;;10.48;100.00;98924.28;5041012;28;20206;-69
2023/04/12 09:55:14;;;;;;;4.40;2.80;;;;;;;10.52;100.00;98921.59;5039058;28;20202;-69
2023/04/12 09:57:42;;;;;;;3.87;2.90;;;;;;;10.57;100.00;98917.13;5044217;28;20603;-68
2023/04/12 10:00:15;;;;;;;3.40;2.87;;;;;;;10.52;100.00;98912.78;5042064;28;20204;-69
2023/04/12 10:02:44;;;;;;;5.37;3.10;;;;;;;10.53;100.00;98912.75;5028034;28;20197;-68
2023/04/12 10:05:16;;;;;;;3.23;2.83;;;;;;;10.52;100.00;98902.19;5039898;28;20696;-70
2023/04/12 10:07:44;;;;;;;4.33;2.90;;;;;;;10.58;100.00;98902.09;5043922;28;20325;-69
2023/04/12 10:10:12;;;;;;;4.00;2.83;;;;;;;10.58;100.00;98896.81;5043501;28;20474;-70
2023/04/12 10:12:40;;;;;;;6.13;3.03;;;;;;;10.58;100.00;98896.81;5043156;28;20203;-69
2023/04/12 10:15:12;;;;;;;4.33;3.17;;;;;;;10.60;100.00;98890.63;5040144;28;20669;-69
2023/04/12 10:17:44;;;;;;;4.20;2.93;;;;;;;10.58;100.00;98888.88;5040040;28;20233;-71
2023/04/12 10:20:14;;;;;;;4.73;3.50;;;;;;;10.66;100.00;98887.88;5045625;28;20251;-70
2023/04/12 10:22:43;;;;;;;5.03;3.87;;;;;;;10.72;100.00;98886.06;5039788;28;20230;-71
2023/04/12 10:25:16;;;;;;;5.83;3.57;;;;;;;10.71;100.00;98882.53;5039233;28;20208;-70
2023/04/12 10:27:44;;;;;;;4.73;3.27;;;;;;;10.66;100.00;98882.59;5046108;28;20326;-70
2023/04/12 10:30:21;;;;;;;3.97;3.07;;;;;;;10.69;100.00;98876.38;5042585;28;20242;-70
2023/04/12 10:32:49;;;;;;;6.10;3.43;;;;;;;10.77;100.00;98871.00;5044529;28;20195;-70
2023/04/12 10:35:15;;;;;;;4.90;3.53;;;;;;;10.84;100.00;98857.69;5044529;28;20217;-70
2023/04/12 10:38:02;;;;;;;4.40;3.20;;;;;;;10.97;100.00;98861.06;5042745;28;20228;-71
2023/04/12 10:40:32;;;;;;;4.73;2.83;;;;;;;11.00;100.00;98850.41;5041752;28;20202;-72
2023/04/12 10:43:17;;;;;;;6.00;3.23;;;;;;;11.00;100.00;98861.00;5048798;28;20277;-74
2023/04/12 10:45:44;;;;;;;5.37;3.10;;;;;;;11.07;100.00;98852.06;5050447;28;20257;-72
2023/04/12 10:48:36;;;;;;;4.53;3.20;;;;;;;11.10;100.00;98854.69;5046494;28;20218;-72
2023/04/12 10:51:27;;;;;;;5.07;3.00;;;;;;;11.15;100.00;98850.19;5044168;28;20658;-71
2023/04/12 10:54:16;;;;;;;5.53;3.10;;;;;;;11.20;100.00;98842.19;5047036;28;20213;-74
2023/04/12 10:56:44;;;;;;;4.93;3.57;;;;;;;11.29;100.00;98847.38;5041929;28;20306;-73
2023/04/12 10:59:15;;;;;;;8.57;4.20;;;;;;;11.33;100.00;98842.91;5048627;28;20210;-70
2023/04/12 11:02:08;;;;;;;6.70;3.50;;;;;;;11.43;100.00;98837.44;5030567;28;20589;-70
2023/04/12 11:04:35;;;;;;;7.47;4.00;;;;;;;11.60;100.00;98837.16;5042558;28;20207;-70
2023/04/12 11:07:09;;;;;;;4.83;3.70;;;;;;;11.59;100.00;98830.09;5044075;28;20219;-71
2023/04/12 11:09:35;;;;;;;4.87;3.43;;;;;;;11.70;100.00;98829.97;5045926;28;20206;-71
2023/04/12 11:12:04;;;;;;;5.10;3.43;;;;;;;11.76;100.00;98829.84;5040777;28;20205;-71
2023/04/12 11:14:36;;;;;;;5.53;3.27;;;;;;;11.86;100.00;98819.09;5041484;28;20315;-71
2023/04/12 11:17:05;;;;;;;4.77;3.30;;;;;;;11.90;100.00;98826.09;5039209;28;20251;-71
2023/04/12 11:19:33;;;;;;;4.90;2.93;;;;;;;12.08;100.00;98816.97;5039537;28;20204;-71
2023/04/12 11:22:01;;;;;;;5.70;3.00;;;;;;;12.16;100.00;98814.16;5041914;28;20233;-73
2023/04/12 11:24:27;;;;;;;5.30;3.00;;;;;;;12.28;100.00;98803.31;5038203;28;20906;-73
2023/04/12 11:26:55;;;;;;;4.40;3.20;;;;;;;12.34;100.00;98803.19;5039752;28;20232;-76
2023/04/12 11:29:26;;;;;;;5.93;3.23;;;;;;;12.48;100.00;98801.16;5038944;28;20205;-76
2023/04/12 11:31:53;;;;;;;5.47;3.50;;;;;;;12.64;100.00;98788.44;5024319;28;20285;-75
2023/04/12 11:34:21;;;;;;;5.53;3.20;;;;;;;12.82;100.00;98788.06;5036709;28;20630;-78
2023/04/12 11:36:51;;;;;;;3.97;3.20;;;;;;;13.05;100.00;98791.97;5040987;28;20734;-78
2023/04/12 11:39:19;;;;;;;6.83;3.10;;;;;;;13.19;100.00;98787.25;5035420;28;20585;-79